sensor_id;sensor_type;location;lat;lon;timestamp;pressure;altitude;pressure_sealevel;temperature;humidity
74982;BME280;63532;50.766;18.944;2024-03-02T11:23:35;98115.44;;;11.02;82.74
74982;BME280;63532;50.766;18.944;2024-03-02T11:26:40;98103.28;;;11.06;82.96
74982;BME280;63532;50.766;18.944;2024-03-02T11:29:52;98103.88;;;11.16;83.27
74982;BME280;63532;50.766;18.944;2024-03-02T11:32:57;98107.88;;;11.20;83.60
74982;BME280;63532;50.766;18.944;2024-03-02T11:36:03;98098.66;;;11.29;83.95
74982;BME280;63532;50.766;18.944;2024-03-02T11:39:15;98099.78;;;11.34;84.01
74982;BME280;63532;50.766;18.944;2024-03-02T11:42:20;98091.16;;;11.39;84.36
74982;BME280;63532;50.766;18.944;2024-03-02T11:45:26;98088.28;;;11.41;84.30
74982;BME280;63532;50.766;18.944;2024-03-02T11:48:31;98087.47;;;11.40;84.17
74982;BME280;63532;50.766;18.944;2024-03-02T11:51:38;98089.41;;;11.46;84.40
74982;BME280;63532;50.766;18.944;2024-03-02T11:54:58;98090.13;;;11.55;84.49
74982;BME280;63532;50.766;18.944;2024-03-02T11:58:07;98086.50;;;11.62;84.36
74982;BME280;63532;50.766;18.944;2024-03-02T12:01:11;98089.47;;;11.67;84.38
74982;BME280;63532;50.766;18.944;2024-03-02T12:04:20;98079.59;;;11.75;84.18
74982;BME280;63532;50.766;18.944;2024-03-02T12:07:26;98079.34;;;11.84;84.14
74982;BME280;63532;50.766;18.944;2024-03-02T12:10:34;98081.72;;;11.94;84.46
74982;BME280;63532;50.766;18.944;2024-03-02T12:13:39;98078.25;;;12.00;84.44
74982;BME280;63532;50.766;18.944;2024-03-02T12:16:45;98082.75;;;12.14;84.04
74982;BME280;63532;50.766;18.944;2024-03-02T12:19:50;98086.34;;;12.21;83.84
74982;BME280;63532;50.766;18.944;2024-03-02T12:22:57;98086.34;;;12.21;83.96
74982;BME280;63532;50.766;18.944;2024-03-02T12:26:05;98089.69;;;12.23;83.72
74982;BME280;63532;50.766;18.944;2024-03-02T12:29:11;98079.75;;;12.24;83.25
74982;BME280;63532;50.766;18.944;2024-03-02T12:32:17;98077.50;;;12.27;83.91
74982;BME280;63532;50.766;18.944;2024-03-02T12:35:24;98079.44;;;12.33;83.59
74982;BME280;63532;50.766;18.944;2024-03-02T12:38:29;98070.91;;;12.30;83.92
74982;BME280;63532;50.766;18.944;2024-03-02T12:41:36;98077.38;;;12.35;83.74
74982;BME280;63532;50.766;18.944;2024-03-02T12:44:41;98074.56;;;12.44;83.23
74982;BME280;63532;50.766;18.944;2024-03-02T12:47:46;98072.31;;;12.47;83.07
74982;BME280;63532;50.766;18.944;2024-03-02T12:50:50;98083.75;;;12.56;83.08
74982;BME280;63532;50.766;18.944;2024-03-02T12:53:57;98080.03;;;12.57;83.51
74982;BME280;63532;50.766;18.944;2024-03-02T12:57:03;98068.03;;;12.59;82.91
74982;BME280;63532;50.766;18.944;2024-03-02T13:00:09;98075.16;;;12.67;83.36
74982;BME280;63532;50.766;18.944;2024-03-02T13:03:18;98066.06;;;12.68;82.88
74982;BME280;63532;50.766;18.944;2024-03-02T13:06:26;98071.06;;;12.71;82.81
74982;BME280;63532;50.766;18.944;2024-03-02T13:09:31;98065.66;;;12.71;83.46
74982;BME280;63532;50.766;18.944;2024-03-02T13:12:39;98059.84;;;12.67;82.95
74982;BME280;63532;50.766;18.944;2024-03-02T13:15:44;98069.13;;;12.65;83.18
74982;BME280;63532;50.766;18.944;2024-03-02T13:18:49;98058.59;;;12.70;83.21
74982;BME280;63532;50.766;18.944;2024-03-02T13:21:54;98055.53;;;12.73;83.19
74982;BME280;63532;50.766;18.944;2024-03-02T13:25:00;98062.97;;;12.71;83.37
74982;BME280;63532;50.766;18.944;2024-03-02T13:28:08;98059.63;;;12.69;83.15
74982;BME280;63532;50.766;18.944;2024-03-02T13:31:14;98060.28;;;12.71;82.80
74982;BME280;63532;50.766;18.944;2024-03-02T13:34:18;98064.25;;;12.75;82.93
74982;BME280;63532;50.766;18.944;2024-03-02T13:37:23;98067.78;;;12.76;83.36
74982;BME280;63532;50.766;18.944;2024-03-02T13:40:27;98058.66;;;12.77;82.92
74982;BME280;63532;50.766;18.944;2024-03-02T13:43:35;98056.81;;;12.77;83.23
74982;BME280;63532;50.766;18.944;2024-03-02T13:46:41;98059.72;;;12.82;83.06
74982;BME280;63532;50.766;18.944;2024-03-02T13:49:48;98059.50;;;12.77;82.93
74982;BME280;63532;50.766;18.944;2024-03-02T13:52:53;98062.97;;;12.71;82.81
74982;BME280;63532;50.766;18.944;2024-03-02T13:55:57;98063.75;;;12.65;82.84
74982;BME280;63532;50.766;18.944;2024-03-02T13:59:03;98061.88;;;12.65;82.91
74982;BME280;63532;50.766;18.944;2024-03-02T14:02:08;98064.84;;;12.70;82.76
74982;BME280;63532;50.766;18.944;2024-03-02T14:05:13;98070.66;;;12.74;82.86
74982;BME280;63532;50.766;18.944;2024-03-02T14:08:18;98068.84;;;12.81;83.17
74982;BME280;63532;50.766;18.944;2024-03-02T14:11:22;98067.66;;;12.90;83.17
74982;BME280;63532;50.766;18.944;2024-03-02T14:14:28;98059.38;;;12.92;82.46
74982;BME280;63532;50.766;18.944;2024-03-02T14:17:32;98069.13;;;12.93;82.53
74982;BME280;63532;50.766;18.944;2024-03-02T14:20:38;98069.59;;;12.96;82.65
74982;BME280;63532;50.766;18.944;2024-03-02T14:23:47;98072.91;;;12.98;82.84
74982;BME280;63532;50.766;18.944;2024-03-02T14:26:53;98073.31;;;12.95;82.33
74982;BME280;63532;50.766;18.944;2024-03-02T14:30:13;98074.34;;;12.94;82.45
74982;BME280;63532;50.766;18.944;2024-03-02T14:33:18;98074.34;;;12.94;82.05
74982;BME280;63532;50.766;18.944;2024-03-02T14:36:23;98068.31;;;12.92;82.03
74982;BME280;63532;50.766;18.944;2024-03-02T14:39:29;98064.59;;;12.93;82.05
74982;BME280;63532;50.766;18.944;2024-03-02T14:42:37;98073.31;;;12.95;81.67
74982;BME280;63532;50.766;18.944;2024-03-02T14:45:43;98067.91;;;12.95;81.75
74982;BME280;63532;50.766;18.944;2024-03-02T14:48:48;98065.41;;;12.94;81.45
74982;BME280;63532;50.766;18.944;2024-03-02T14:51:52;98065.38;;;12.87;81.45
74982;BME280;63532;50.766;18.944;2024-03-02T14:54:57;98061.19;;;12.85;81.67
74982;BME280;63532;50.766;18.944;2024-03-02T14:58:02;98061.78;;;12.80;81.32
74982;BME280;63532;50.766;18.944;2024-03-02T15:01:09;98056.16;;;12.75;81.16
74982;BME280;63532;50.766;18.944;2024-03-02T15:04:14;98061.94;;;12.72;81.48
74982;BME280;63532;50.766;18.944;2024-03-02T15:07:23;98062.97;;;12.71;81.39
74982;BME280;63532;50.766;18.944;2024-03-02T15:10:27;98059.84;;;12.67;81.23
74982;BME280;63532;50.766;18.944;2024-03-02T15:13:32;98059.19;;;12.65;81.25
74982;BME280;63532;50.766;18.944;2024-03-02T15:16:38;98051.69;;;12.61;81.63
74982;BME280;63532;50.766;18.944;2024-03-02T15:19:43;98055.19;;;12.55;81.56
74982;BME280;63532;50.766;18.944;2024-03-02T15:22:48;98055.97;;;12.49;81.12
74982;BME280;63532;50.766;18.944;2024-03-02T15:25:52;98057.75;;;12.42;81.43
74982;BME280;63532;50.766;18.944;2024-03-02T15:28:57;98049.59;;;12.35;81.17
74982;BME280;63532;50.766;18.944;2024-03-02T15:32:04;98056.63;;;12.29;80.97
74982;BME280;63532;50.766;18.944;2024-03-02T15:35:10;98058.41;;;12.22;81.33
74982;BME280;63532;50.766;18.944;2024-03-02T15:38:14;98052.75;;;12.17;81.90
74982;BME280;63532;50.766;18.944;2024-03-02T15:41:34;98053.94;;;12.08;81.63
74982;BME280;63532;50.766;18.944;2024-03-02T15:44:38;98048.66;;;12.00;81.50
74982;BME280;63532;50.766;18.944;2024-03-02T15:47:48;98054.59;;;11.95;81.59
74982;BME280;63532;50.766;18.944;2024-03-02T15:50:52;98063.66;;;11.88;81.53
74982;BME280;63532;50.766;18.944;2024-03-02T15:53:57;98059.03;;;11.82;81.74
74982;BME280;63532;50.766;18.944;2024-03-02T15:57:01;98052.69;;;11.75;81.11
74982;BME280;63532;50.766;18.944;2024-03-02T16:00:07;98055.13;;;11.69;81.53
74982;BME280;63532;50.766;18.944;2024-03-02T16:03:16;98057.19;;;11.67;81.67
74982;BME280;63532;50.766;18.944;2024-03-02T16:06:21;98059.59;;;11.62;81.82
74982;BME280;63532;50.766;18.944;2024-03-02T16:09:25;98060.72;;;11.53;81.51
74982;BME280;63532;50.766;18.944;2024-03-02T16:12:30;98053.63;;;11.46;81.81
74982;BME280;63532;50.766;18.944;2024-03-02T16:15:34;98058.25;;;11.37;81.97
74982;BME280;63532;50.766;18.944;2024-03-02T16:18:40;98065.22;;;11.31;82.11
74982;BME280;63532;50.766;18.944;2024-03-02T16:21:44;98055.41;;;11.24;82.03
74982;BME280;63532;50.766;18.944;2024-03-02T16:24:49;98059.84;;;11.17;82.20
74982;BME280;63532;50.766;18.944;2024-03-02T16:27:54;98068.00;;;11.09;82.09
74982;BME280;63532;50.766;18.944;2024-03-02T16:31:00;98058.38;;;10.99;81.96
74982;BME280;63532;50.766;18.944;2024-03-02T16:34:06;98067.16;;;10.93;82.42
74982;BME280;63532;50.766;18.944;2024-03-02T16:37:10;98068.53;;;10.89;82.53
74982;BME280;63532;50.766;18.944;2024-03-02T16:40:15;98067.25;;;10.85;82.50
74982;BME280;63532;50.766;18.944;2024-03-02T16:43:20;98075.41;;;10.77;82.78
74982;BME280;63532;50.766;18.944;2024-03-02T16:46:24;98075.66;;;10.68;82.54
74982;BME280;63532;50.766;18.944;2024-03-02T16:49:30;98080.66;;;10.56;83.06
74982;BME280;63532;50.766;18.944;2024-03-02T16:52:35;98090.59;;;10.47;82.63
74982;BME280;63532;50.766;18.944;2024-03-02T16:55:39;98090.38;;;10.34;83.12
74982;BME280;63532;50.766;18.944;2024-03-02T16:58:44;98084.59;;;10.22;82.98
74982;BME280;63532;50.766;18.944;2024-03-02T17:01:49;98092.22;;;10.11;83.08
74982;BME280;63532;50.766;18.944;2024-03-02T17:04:55;98100.47;;;10.01;83.40
74982;BME280;63532;50.766;18.944;2024-03-02T17:07:59;98090.34;;;9.88;83.29
74982;BME280;63532;50.766;18.944;2024-03-02T17:11:04;98096.28;;;9.76;83.41
74982;BME280;63532;50.766;18.944;2024-03-02T17:14:08;98092.69;;;9.60;83.08
74982;BME280;63532;50.766;18.944;2024-03-02T17:17:13;98102.31;;;9.47;83.66
74982;BME280;63532;50.766;18.944;2024-03-02T17:20:19;98091.78;;;9.37;83.37
74982;BME280;63532;50.766;18.944;2024-03-02T17:23:26;98089.50;;;9.26;83.66
74982;BME280;63532;50.766;18.944;2024-03-02T17:26:34;98095.53;;;9.20;83.67
74982;BME280;63532;50.766;18.944;2024-03-02T17:29:40;98092.88;;;9.12;83.74
74982;BME280;63532;50.766;18.944;2024-03-02T17:32:45;98104.28;;;9.06;84.11
74982;BME280;63532;50.766;18.944;2024-03-02T17:35:51;98094.44;;;8.98;83.50
74982;BME280;63532;50.766;18.944;2024-03-02T17:38:56;98100.28;;;8.93;83.72
74982;BME280;63532;50.766;18.944;2024-03-02T17:42:00;98106.69;;;8.84;84.28
74982;BME280;63532;50.766;18.944;2024-03-02T17:45:06;98097.50;;;8.79;84.32
74982;BME280;63532;50.766;18.944;2024-03-02T17:48:10;98100.34;;;8.69;84.10
74982;BME280;63532;50.766;18.944;2024-03-02T17:51:17;98103.22;;;8.59;83.79
74982;BME280;63532;50.766;18.944;2024-03-02T17:54:21;98099.69;;;8.51;84.51
74982;BME280;63532;50.766;18.944;2024-03-02T17:57:26;98094.34;;;8.43;84.23
74982;BME280;63532;50.766;18.944;2024-03-02T18:00:30;98099.69;;;8.35;84.13
74982;BME280;63532;50.766;18.944;2024-03-02T18:03:35;98100.31;;;8.29;84.29
74982;BME280;63532;50.766;18.944;2024-03-02T18:06:41;98090.97;;;8.16;84.09
74982;BME280;63532;50.766;18.944;2024-03-02T18:09:46;98099.97;;;8.07;85.02
74982;BME280;63532;50.766;18.944;2024-03-02T18:12:50;98100.00;;;7.99;84.17
74982;BME280;63532;50.766;18.944;2024-03-02T18:15:55;98103.63;;;7.90;84.48
74982;BME280;63532;50.766;18.944;2024-03-02T18:19:00;98103.13;;;7.78;84.60
74982;BME280;63532;50.766;18.944;2024-03-02T18:22:10;98102.94;;;7.72;84.77
74982;BME280;63532;50.766;18.944;2024-03-02T18:25:15;98099.22;;;7.65;84.46
74982;BME280;63532;50.766;18.944;2024-03-02T18:28:20;98098.03;;;7.59;84.65
74982;BME280;63532;50.766;18.944;2024-03-02T18:31:24;98093.69;;;7.50;84.50
74982;BME280;63532;50.766;18.944;2024-03-02T18:34:29;98097.84;;;7.44;84.39
74982;BME280;63532;50.766;18.944;2024-03-02T18:37:38;98100.31;;;7.38;84.59
74982;BME280;63532;50.766;18.944;2024-03-02T18:40:45;98093.63;;;7.34;84.87
74982;BME280;63532;50.766;18.944;2024-03-02T18:43:50;98100.44;;;7.28;84.98
74982;BME280;63532;50.766;18.944;2024-03-02T18:46:55;98097.41;;;7.23;84.92
74982;BME280;63532;50.766;18.944;2024-03-02T18:49:59;98102.56;;;7.16;85.11
74982;BME280;63532;50.766;18.944;2024-03-02T18:53:07;98097.56;;;7.13;84.83
74982;BME280;63532;50.766;18.944;2024-03-02T18:56:15;98088.34;;;7.08;84.71
74982;BME280;63532;50.766;18.944;2024-03-02T18:59:19;98097.66;;;7.04;84.75
74982;BME280;63532;50.766;18.944;2024-03-02T19:02:24;98094.31;;;7.02;84.98
74982;BME280;63532;50.766;18.944;2024-03-02T19:05:31;98091.28;;;6.97;84.93
74982;BME280;63532;50.766;18.944;2024-03-02T19:08:37;98092.63;;;6.93;84.63
74982;BME280;63532;50.766;18.944;2024-03-02T19:11:42;98083.56;;;6.85;84.88
74982;BME280;63532;50.766;18.944;2024-03-02T19:14:46;98094.53;;;6.82;84.80
74982;BME280;63532;50.766;18.944;2024-03-02T19:17:51;98090.19;;;6.81;84.90
74982;BME280;63532;50.766;18.944;2024-03-02T19:20:56;98091.50;;;6.77;84.90
74982;BME280;63532;50.766;18.944;2024-03-02T19:24:02;98086.78;;;6.71;84.92
74982;BME280;63532;50.766;18.944;2024-03-02T19:27:06;98088.97;;;6.68;85.25
74982;BME280;63532;50.766;18.944;2024-03-02T19:30:12;98089.28;;;6.65;85.07
74982;BME280;63532;50.766;18.944;2024-03-02T19:33:16;98083.03;;;6.56;85.21
74982;BME280;63532;50.766;18.944;2024-03-02T19:36:21;98087.53;;;6.56;84.94
74982;BME280;63532;50.766;18.944;2024-03-02T19:39:28;98090.66;;;6.51;85.11
74982;BME280;63532;50.766;18.944;2024-03-02T19:42:34;98090.31;;;6.46;84.80
74982;BME280;63532;50.766;18.944;2024-03-02T19:45:38;98084.31;;;6.44;85.39
74982;BME280;63532;50.766;18.944;2024-03-02T19:48:43;98080.25;;;6.40;85.33
74982;BME280;63532;50.766;18.944;2024-03-02T19:51:47;98076.22;;;6.36;85.23
74982;BME280;63532;50.766;18.944;2024-03-02T19:54:53;98079.88;;;6.35;85.44
74982;BME280;63532;50.766;18.944;2024-03-02T19:57:58;98072.34;;;6.30;85.26
74982;BME280;63532;50.766;18.944;2024-03-02T20:01:03;98077.69;;;6.30;85.25
74982;BME280;63532;50.766;18.944;2024-03-02T20:04:08;98073.53;;;6.28;85.41
74982;BME280;63532;50.766;18.944;2024-03-02T20:07:13;98074.66;;;6.25;85.39
74982;BME280;63532;50.766;18.944;2024-03-02T20:10:19;98068.50;;;6.25;85.00
74982;BME280;63532;50.766;18.944;2024-03-02T20:13:24;98067.50;;;6.26;85.61
74982;BME280;63532;50.766;18.944;2024-03-02T20:16:28;98074.81;;;6.24;85.64
74982;BME280;63532;50.766;18.944;2024-03-02T20:19:33;98073.53;;;6.28;85.47
74982;BME280;63532;50.766;18.944;2024-03-02T20:22:42;98079.50;;;6.30;85.31
74982;BME280;63532;50.766;18.944;2024-03-02T20:25:48;98076.84;;;6.30;85.74
74982;BME280;63532;50.766;18.944;2024-03-02T20:28:53;98076.84;;;6.30;85.67
74982;BME280;63532;50.766;18.944;2024-03-02T20:31:58;98083.84;;;6.31;85.64
74982;BME280;63532;50.766;18.944;2024-03-02T20:35:03;98081.19;;;6.31;85.70
74982;BME280;63532;50.766;18.944;2024-03-02T20:38:09;98076.53;;;6.33;85.41
74982;BME280;63532;50.766;18.944;2024-03-02T20:41:15;98073.72;;;6.34;85.92
74982;BME280;63532;50.766;18.944;2024-03-02T20:44:20;98077.22;;;6.35;85.58
74982;BME280;63532;50.766;18.944;2024-03-02T20:47:27;98071.72;;;6.36;85.87
74982;BME280;63532;50.766;18.944;2024-03-02T20:50:32;98075.38;;;6.35;85.40
74982;BME280;63532;50.766;18.944;2024-03-02T20:53:36;98081.56;;;6.36;85.58
74982;BME280;63532;50.766;18.944;2024-03-02T20:56:43;98071.72;;;6.36;85.67
74982;BME280;63532;50.766;18.944;2024-03-02T20:59:48;98071.72;;;6.36;85.74
74982;BME280;63532;50.766;18.944;2024-03-02T21:02:53;98065.56;;;6.36;85.89
74982;BME280;63532;50.766;18.944;2024-03-02T21:05:57;98074.41;;;6.36;85.96
74982;BME280;63532;50.766;18.944;2024-03-02T21:09:02;98071.56;;;6.38;85.76
74982;BME280;63532;50.766;18.944;2024-03-02T21:12:09;98063.88;;;6.35;85.93
74982;BME280;63532;50.766;18.944;2024-03-02T21:15:14;98066.41;;;6.36;85.84
